Time;durP1;ratioP1;P1;durP2;ratioP2;P2;SDS_P1;SDS_P2;PMS_P1;PMS_P2;Temp;Humidity;BMP_temperature;BMP_pressure;BME280_temperature;BME280_humidity;BME280_pressure;Samples;Min_cycle;Max_cycle;Signal;HPM_P1;HPM_P2
2023/06/03 00:03:17;;;;;;;5.63;2.30;;;;;;;16.80;49.14;100398.19;10341659;28;20713;-64
2023/06/03 00:08:19;;;;;;;6.22;2.08;;;;;;;16.75;48.60;100397.81;10333832;28;20553;-64
2023/06/03 00:13:21;;;;;;;6.82;2.20;;;;;;;16.75;48.81;100384.38;10331204;28;20066;-64
2023/06/03 00:18:23;;;;;;;4.75;2.13;;;;;;;16.61;49.42;100375.91;10343590;28;20057;-63
2023/06/03 00:23:25;;;;;;;4.95;2.00;;;;;;;16.62;49.35;100384.81;10330197;28;20041;-64
2023/06/03 00:28:26;;;;;;;7.47;3.53;;;;;;;16.61;49.29;100381.28;10326100;28;20556;-65
2023/06/03 00:33:28;;;;;;;4.85;2.03;;;;;;;16.54;49.82;100377.56;10342243;28;20057;-64
2023/06/03 00:38:30;;;;;;;8.52;3.15;;;;;;;16.41;50.41;100383.34;10339482;28;20522;-64
2023/06/03 00:43:32;;;;;;;4.55;2.50;;;;;;;16.43;50.34;100385.88;10340385;28;20068;-64
2023/06/03 00:48:33;;;;;;;5.32;2.65;;;;;;;16.44;49.83;100383.03;10342089;28;20138;-64
2023/06/03 00:53:35;;;;;;;5.00;2.40;;;;;;;16.34;50.56;100387.66;10323834;28;20529;-63
2023/06/03 00:58:37;;;;;;;4.45;2.33;;;;;;;16.28;50.51;100387.47;10326734;28;20534;-65
2023/06/03 01:03:42;;;;;;;6.25;3.08;;;;;;;16.25;50.56;100378.72;10321839;28;20065;-64
2023/06/03 01:09:04;;;;;;;5.72;2.90;;;;;;;16.17;50.90;100380.47;10317145;28;20057;-64
2023/06/03 01:14:11;;;;;;;6.75;3.33;;;;;;;16.05;51.15;100369.19;10324766;28;20053;-64
2023/06/03 01:19:48;;;;;;;5.93;2.50;;;;;;;15.99;51.81;100373.31;10327604;28;20152;-65
2023/06/03 01:24:50;;;;;;;6.70;3.42;;;;;;;15.90;51.65;100363.53;10334953;28;20061;-64
2023/06/03 01:29:51;;;;;;;4.05;2.25;;;;;;;15.91;51.93;100362.50;10305260;28;20866;-65
2023/06/03 01:34:54;;;;;;;3.20;2.15;;;;;;;15.86;52.37;100368.34;10328290;28;20133;-65
2023/06/03 01:39:56;;;;;;;5.60;2.95;;;;;;;15.84;52.67;100365.00;10298120;28;20056;-66
2023/06/03 01:45:01;;;;;;;5.30;3.00;;;;;;;15.80;52.12;100362.78;10294483;28;20062;-65
2023/06/03 01:50:03;;;;;;;6.22;2.70;;;;;;;15.77;52.79;100363.88;10303847;28;20041;-65
2023/06/03 01:55:05;;;;;;;5.28;3.00;;;;;;;15.59;53.30;100365.75;10332292;28;20476;-66
2023/06/03 02:00:09;;;;;;;4.63;3.00;;;;;;;15.40;53.91;100367.56;10309160;28;20057;-65
2023/06/03 02:05:11;;;;;;;6.13;3.25;;;;;;;15.43;53.70;100364.56;10340743;28;20609;-65
2023/06/03 02:10:13;;;;;;;5.88;3.28;;;;;;;15.37;54.13;100355.31;10337733;28;20045;-67
2023/06/03 02:15:15;;;;;;;5.53;3.70;;;;;;;15.31;54.33;100357.75;10317886;28;20049;-65
2023/06/03 02:20:18;;;;;;;5.70;3.20;;;;;;;15.23;54.38;100355.00;10333891;28;20053;-64
2023/06/03 02:25:20;;;;;;;7.57;2.80;;;;;;;15.18;54.76;100347.41;10312720;28;20135;-65
2023/06/03 02:30:22;;;;;;;6.43;3.17;;;;;;;15.23;54.69;100344.25;10319824;28;20406;-65
2023/06/03 02:35:25;;;;;;;3.63;2.83;;;;;;;15.22;54.17;100347.94;10319486;28;20125;-65
2023/06/03 02:40:27;;;;;;;5.68;3.20;;;;;;;15.06;54.92;100349.44;10306511;28;20045;-66
2023/06/03 02:45:29;;;;;;;6.07;2.97;;;;;;;15.07;54.81;100359.16;10334909;28;20165;-66
2023/06/03 02:50:31;;;;;;;5.70;3.40;;;;;;;14.96;54.68;100362.06;10337572;28;20049;-65
2023/06/03 02:55:33;;;;;;;8.13;3.28;;;;;;;15.00;54.65;100364.28;10326709;28;20060;-64
2023/06/03 03:00:36;;;;;;;5.35;3.05;;;;;;;15.00;54.04;100364.28;10292005;28;20046;-64
2023/06/03 03:05:38;;;;;;;3.88;2.63;;;;;;;14.91;54.23;100380.44;10330844;28;20045;-65
2023/06/03 03:10:40;;;;;;;7.72;3.58;;;;;;;14.79;54.50;100377.94;10325907;28;20053;-65
2023/06/03 03:15:42;;;;;;;4.50;2.65;;;;;;;14.69;54.30;100371.78;10344785;28;20128;-65
2023/06/03 03:20:44;;;;;;;4.63;2.67;;;;;;;14.61;54.69;100380.53;10324463;28;20138;-65
2023/06/03 03:25:46;;;;;;;4.70;2.50;;;;;;;14.72;53.77;100390.22;10339440;28;20328;-65
2023/06/03 03:30:49;;;;;;;4.85;2.95;;;;;;;14.70;53.22;100386.88;10342083;28;20166;-65
2023/06/03 03:35:50;;;;;;;4.88;2.58;;;;;;;14.69;52.93;100395.88;10330510;28;20636;-65
2023/06/03 03:40:52;;;;;;;4.30;2.47;;;;;;;14.68;52.75;100396.84;10317675;28;20057;-64
2023/06/03 03:45:53;;;;;;;4.22;2.17;;;;;;;14.49;52.62;100390.56;10345363;28;20050;-64
2023/06/03 03:50:56;;;;;;;6.35;2.17;;;;;;;14.61;51.95;100399.28;10331213;28;20064;-64
2023/06/03 03:55:58;;;;;;;3.17;2.13;;;;;;;14.54;51.46;100400.00;10329464;28;20539;-64
2023/06/03 04:01:09;;;;;;;3.97;1.80;;;;;;;14.44;51.42;100398.19;10325467;28;20528;-64
2023/06/03 04:06:12;;;;;;;3.88;1.88;;;;;;;14.50;51.32;100402.09;10339454;28;20061;-64
2023/06/03 04:11:37;;;;;;;3.08;1.60;;;;;;;14.42;50.92;100407.34;10318435;28;20057;-64
2023/06/03 04:16:42;;;;;;;7.32;2.15;;;;;;;14.40;50.96;100410.19;10310826;28;20470;-65
2023/06/03 04:21:45;;;;;;;2.60;1.85;;;;;;;14.43;50.13;100411.72;10340749;28;20046;-65
2023/06/03 04:26:47;;;;;;;3.65;1.80;;;;;;;14.41;49.71;100409.19;10329120;28;20152;-64
2023/06/03 04:31:49;;;;;;;4.30;1.80;;;;;;;14.47;49.50;100402.41;10334220;28;20092;-64
2023/06/03 04:36:51;;;;;;;3.55;1.63;;;;;;;14.55;49.12;100407.06;10327111;28;20435;-65
2023/06/03 04:41:53;;;;;;;3.05;1.25;;;;;;;14.56;48.63;100400.69;10340316;28;20057;-64
2023/06/03 04:46:55;;;;;;;4.63;1.50;;;;;;;14.64;48.28;100403.53;10324690;28;20144;-65
2023/06/03 04:51:56;;;;;;;4.90;1.63;;;;;;;14.64;48.32;100384.78;10341086;28;20053;-65
2023/06/03 04:56:58;;;;;;;3.65;1.75;;;;;;;14.73;47.77;100413.34;10318719;28;20127;-65
2023/06/03 05:02:00;;;;;;;5.45;1.45;;;;;;;14.72;47.82;100406.31;10340772;28;20056;-65
2023/06/03 05:07:02;;;;;;;2.67;1.52;;;;;;;14.70;47.87;100407.44;10329975;28;20604;-66
2023/06/03 05:12:04;;;;;;;4.18;1.73;;;;;;;14.81;47.52;100407.25;10329753;28;20053;-65
2023/06/03 05:17:06;;;;;;;3.10;1.23;;;;;;;14.78;47.05;100408.38;10326879;28;20072;-65
2023/06/03 05:22:07;;;;;;;2.63;1.40;;;;;;;14.77;47.38;100409.41;10337954;28;20813;-65
2023/06/03 05:27:09;;;;;;;3.97;1.20;;;;;;;14.84;46.82;100397.06;10340295;28;20072;-66
2023/06/03 05:32:11;;;;;;;2.08;1.13;;;;;;;15.02;46.71;100407.03;10343559;28;20084;-64
2023/06/03 05:37:13;;;;;;;5.47;1.65;;;;;;;15.09;46.61;100401.94;10341722;28;20051;-63
2023/06/03 05:42:14;;;;;;;2.60;1.15;;;;;;;15.27;46.04;100399.28;10328367;28;20067;-63
2023/06/03 05:47:16;;;;;;;2.80;1.23;;;;;;;15.32;46.52;100397.81;10327358;28;20076;-64
2023/06/03 05:52:17;;;;;;;3.40;1.38;;;;;;;15.45;45.72;100397.47;10340451;28;25255;-67
2023/06/03 05:57:19;;;;;;;3.13;0.88;;;;;;;15.47;45.60;100400.81;10341916;28;20115;-65
2023/06/03 06:02:20;;;;;;;2.03;1.13;;;;;;;15.54;45.21;100388.50;10332189;28;20133;-65
2023/06/03 06:07:22;;;;;;;1.88;0.88;;;;;;;15.75;44.69;100398.09;10319819;28;20057;-64
2023/06/03 06:12:24;;;;;;;2.65;1.08;;;;;;;15.91;45.07;100397.41;10317566;28;20058;-64
2023/06/03 06:17:26;;;;;;;2.78;1.08;;;;;;;16.10;44.19;100391.03;10332414;28;20545;-71
2023/06/03 06:22:28;;;;;;;3.05;1.42;;;;;;;16.25;44.45;100389.44;10339677;28;20758;-65
2023/06/03 06:27:30;;;;;;;4.00;1.30;;;;;;;16.44;43.18;100395.63;10335760;28;21398;-65
2023/06/03 06:32:48;;;;;;;6.53;1.95;;;;;;;16.35;45.18;100400.09;10343888;28;20061;-54
2023/06/03 06:37:49;;;;;;;4.75;1.13;;;;;;;16.65;44.35;100399.75;10341739;28;20245;-55
2023/06/03 06:42:51;;;;;;;3.60;1.15;;;;;;;16.85;44.54;100398.53;10321818;28;20160;-52
2023/06/03 06:48:04;;;;;;;4.80;1.00;;;;;;;17.09;43.97;100399.69;10340923;28;21007;-54
2023/06/03 06:53:06;;;;;;;2.15;1.10;;;;;;;17.31;43.74;100396.38;10345380;28;20045;-53
2023/06/03 06:58:11;;;;;;;1.80;1.00;;;;;;;17.47;44.25;100397.44;10341867;28;20118;-52
2023/06/03 07:03:15;;;;;;;3.05;1.02;;;;;;;17.63;43.69;100399.31;10339697;28;20058;-51
2023/06/03 07:08:16;;;;;;;2.97;1.13;;;;;;;17.77;43.31;100395.94;10341418;28;20096;-52
2023/06/03 07:13:18;;;;;;;2.42;1.30;;;;;;;17.98;43.45;100395.47;10339742;28;20167;-57
2023/06/03 07:18:21;;;;;;;32.55;8.00;;;;;;;18.15;43.00;100399.03;10336148;28;20067;-52
2023/06/03 07:23:28;;;;;;;4.55;1.40;;;;;;;18.28;42.83;100393.09;10339492;28;20060;-53
2023/06/03 07:28:33;;;;;;;3.30;1.48;;;;;;;18.43;42.23;100395.13;10320159;28;20061;-52
2023/06/03 07:33:40;;;;;;;2.83;1.00;;;;;;;18.58;42.21;100404.16;10336919;28;20057;-52
2023/06/03 07:39:02;;;;;;;2.25;1.30;;;;;;;18.73;41.31;100397.06;10335018;28;20049;-52
2023/06/03 07:44:11;;;;;;;5.15;1.65;;;;;;;18.89;42.18;100395.34;10341175;28;20046;-52
2023/06/03 07:49:19;;;;;;;5.53;1.60;;;;;;;19.02;42.02;100392.94;10342028;28;20045;-54
2023/06/03 07:54:20;;;;;;;2.75;1.25;;;;;;;19.12;42.10;100391.88;10335075;28;20084;-55
2023/06/03 07:59:23;;;;;;;3.78;1.63;;;;;;;19.26;42.41;100399.25;10319488;28;20058;-55
2023/06/03 08:04:35;;;;;;;2.38;1.52;;;;;;;19.46;41.96;100396.94;10335404;28;20138;-55
2023/06/03 08:09:37;;;;;;;2.80;1.10;;;;;;;19.75;41.89;100407.00;10329605;28;20092;-55
2023/06/03 08:14:39;;;;;;;2.72;1.90;;;;;;;20.00;40.99;100398.75;10339289;28;20056;-55
2023/06/03 08:19:45;;;;;;;3.13;1.35;;;;;;;20.17;41.42;100401.31;10309779;28;20149;-55
2023/06/03 08:24:47;;;;;;;5.03;1.75;;;;;;;20.28;40.83;100390.91;10327500;28;20048;-56
2023/06/03 08:29:48;;;;;;;4.03;1.40;;;;;;;20.38;41.28;100396.03;10313037;28;20220;-55
2023/06/03 08:34:50;;;;;;;3.78;1.58;;;;;;;20.60;40.98;100388.06;10311170;28;20169;-56
2023/06/03 08:39:53;;;;;;;3.67;1.80;;;;;;;20.77;40.60;100384.16;10330650;28;20875;-55
2023/06/03 08:45:02;;;;;;;4.70;1.75;;;;;;;20.86;40.17;100389.47;10331445;28;20053;-55
2023/06/03 08:50:10;;;;;;;4.28;1.75;;;;;;;20.81;39.77;100374.66;10335760;28;20110;-55
2023/06/03 08:55:15;;;;;;;3.17;1.70;;;;;;;20.93;40.20;100383.13;10331328;28;20053;-55
2023/06/03 09:00:21;;;;;;;2.35;1.90;;;;;;;21.23;40.05;100382.22;10324039;28;20066;-54
2023/06/03 09:05:24;;;;;;;3.90;2.05;;;;;;;21.47;39.80;100373.75;10326835;28;20157;-55
2023/06/03 09:10:26;;;;;;;2.88;1.88;;;;;;;21.56;39.15;100377.22;10331707;28;20045;-55
2023/06/03 09:15:30;;;;;;;3.28;2.00;;;;;;;21.74;39.38;100379.47;10324536;28;20060;-55
2023/06/03 09:20:35;;;;;;;5.32;2.22;;;;;;;21.98;39.46;100382.81;10321942;28;20613;-55
2023/06/03 09:25:36;;;;;;;3.78;1.80;;;;;;;22.07;38.89;100370.81;10327730;28;20476;-55
2023/06/03 09:30:38;;;;;;;3.13;1.83;;;;;;;22.29;38.40;100381.59;10304389;28;21940;-59
2023/06/03 09:35:42;;;;;;;3.85;1.85;;;;;;;22.52;38.21;100387.63;10310485;28;20068;-54
2023/06/03 09:40:44;;;;;;;3.95;1.88;;;;;;;22.76;38.12;100382.78;10325571;28;20049;-55
2023/06/03 09:45:46;;;;;;;5.95;1.85;;;;;;;23.04;37.32;100385.38;10325564;28;20753;-60
2023/06/03 09:50:51;;;;;;;4.50;2.20;;;;;;;23.13;36.35;100377.94;10321226;28;20072;-55
2023/06/03 09:55:53;;;;;;;3.97;1.85;;;;;;;23.30;36.22;100379.25;10322803;28;20056;-55
2023/06/03 10:00:56;;;;;;;2.60;1.80;;;;;;;23.64;35.63;100380.19;10325595;28;20101;-56
2023/06/03 10:05:58;;;;;;;2.75;2.00;;;;;;;23.78;35.01;100374.75;10315282;28;20100;-56
2023/06/03 10:11:00;;;;;;;3.95;1.83;;;;;;;24.07;34.72;100370.00;10323719;28;20061;-55
2023/06/03 10:16:09;;;;;;;2.95;2.10;;;;;;;24.13;34.83;100375.41;10324413;28;20053;-56
2023/06/03 10:21:12;;;;;;;2.67;2.08;;;;;;;24.24;34.44;100365.78;10324454;28;20112;-58
2023/06/03 10:26:16;;;;;;;4.40;2.22;;;;;;;24.46;33.89;100360.13;10336713;28;20093;-54
2023/06/03 10:31:20;;;;;;;4.18;2.10;;;;;;;24.76;33.81;100349.59;10323392;28;20114;-54
2023/06/03 10:36:23;;;;;;;5.75;2.35;;;;;;;24.79;33.66;100353.78;10324567;28;20134;-55
2023/06/03 10:41:25;;;;;;;3.67;2.60;;;;;;;24.99;33.49;100348.25;10323810;28;20708;-54
2023/06/03 10:46:28;;;;;;;3.92;2.10;;;;;;;25.19;33.36;100350.84;10325812;28;20072;-53
2023/06/03 10:51:49;;;;;;;5.97;2.67;;;;;;;25.43;32.82;100348.47;10328574;28;20045;-54
2023/06/03 10:56:57;;;;;;;3.63;2.20;;;;;;;25.74;32.37;100333.97;10324497;28;20077;-53
2023/06/03 11:02:01;;;;;;;4.57;2.55;;;;;;;25.82;30.99;100354.69;10333420;28;21141;-54
2023/06/03 11:07:05;;;;;;;3.85;2.42;;;;;;;26.02;31.04;100340.94;10317043;28;21479;-53
2023/06/03 11:12:13;;;;;;;2.83;2.17;;;;;;;26.11;29.89;100355.94;10334183;28;20153;-53
2023/06/03 11:17:15;;;;;;;2.63;2.10;;;;;;;26.19;29.79;100352.09;10331150;28;20458;-54
2023/06/03 11:22:29;;;;;;;3.53;2.65;;;;;;;26.14;30.10;100349.19;10331269;28;20493;-54
2023/06/03 11:27:31;;;;;;;4.57;2.70;;;;;;;26.34;30.15;100346.28;10335084;28;20621;-54
2023/06/03 11:32:38;;;;;;;4.30;2.37;;;;;;;26.40;30.57;100343.47;10318943;28;20433;-53
2023/06/03 11:37:43;;;;;;;2.55;2.17;;;;;;;26.24;30.26;100354.97;10337184;28;20091;-54
2023/06/03 11:42:47;;;;;;;6.13;2.47;;;;;;;26.24;30.79;100346.78;10330902;28;20056;-54
2023/06/03 11:47:53;;;;;;;4.78;2.75;;;;;;;26.10;29.89;100344.19;10331686;28;20057;-52
2023/06/03 11:52:55;;;;;;;4.13;2.47;;;;;;;26.03;30.41;100348.03;10329643;28;20056;-53
2023/06/03 11:58:09;;;;;;;5.65;2.53;;;;;;;25.90;30.33;100343.50;10336359;28;20052;-50
2023/06/03 12:03:15;;;;;;;2.38;2.17;;;;;;;25.94;30.68;100344.72;10336943;28;20057;-48
2023/06/03 12:08:16;;;;;;;4.75;2.72;;;;;;;25.76;30.62;100337.31;10335941;28;20156;-51
2023/06/03 12:13:18;;;;;;;3.03;2.08;;;;;;;25.63;31.11;100332.81;10327062;28;20050;-52
2023/06/03 12:18:19;;;;;;;3.92;1.88;;;;;;;25.66;30.40;100318.75;10332053;28;20153;-51
2023/06/03 12:23:21;;;;;;;5.13;2.03;;;;;;;25.93;29.58;100322.06;10327602;28;20057;-51
2023/06/03 12:28:24;;;;;;;3.15;2.00;;;;;;;25.93;30.21;100321.25;10329339;28;20049;-51
2023/06/03 12:33:38;;;;;;;2.65;1.88;;;;;;;26.18;30.09;100317.69;10323611;28;20048;-52
2023/06/03 12:38:59;;;;;;;4.40;2.00;;;;;;;26.17;29.38;100311.41;10331300;28;20057;-53
2023/06/03 12:44:02;;;;;;;3.75;1.98;;;;;;;26.25;29.70;100305.63;10325757;28;20133;-52
2023/06/03 12:49:14;;;;;;;3.15;2.03;;;;;;;26.27;29.32;100309.00;10328606;28;20230;-52
2023/06/03 12:54:16;;;;;;;2.78;2.10;;;;;;;26.06;29.08;100293.03;10324868;28;22103;-51
2023/06/03 13:05:41;;;;;;;2.85;1.33;;;;;;;26.09;30.20;100298.91;10305887;28;20082;-73
2023/06/03 13:10:43;;;;;;;3.03;1.60;;;;;;;26.16;29.96;100287.91;10272495;23;20076;-54
2023/06/03 13:15:45;;;;;;;5.80;1.95;;;;;;;26.01;29.54;100274.63;10280976;28;20497;-51
2023/06/03 13:20:47;;;;;;;4.40;1.63;;;;;;;25.99;29.66;100276.75;10246015;28;20058;-52
2023/06/03 13:25:48;;;;;;;2.75;1.75;;;;;;;26.04;30.22;100279.63;10249974;28;21008;-51
2023/06/03 13:30:50;;;;;;;4.75;1.80;;;;;;;25.97;29.71;100278.00;10252048;28;20060;-51
2023/06/03 13:35:51;;;;;;;3.88;1.63;;;;;;;25.94;30.22;100276.53;10251061;28;20148;-51
2023/06/03 13:40:53;;;;;;;3.05;1.70;;;;;;;25.82;29.25;100275.63;10249768;28;20188;-51
2023/06/03 13:45:58;;;;;;;2.53;1.70;;;;;;;25.63;29.91;100277.47;10248430;28;20057;-51
2023/06/03 13:51:01;;;;;;;5.20;3.03;;;;;;;25.49;30.24;100274.00;10229801;28;20133;-50
2023/06/03 13:56:02;;;;;;;3.87;2.20;;;;;;;25.48;29.54;100272.34;10244206;28;20222;-51
2023/06/03 14:01:04;;;;;;;2.47;1.77;;;;;;;25.31;30.05;100264.72;10249174;28;20289;-51
2023/06/03 14:06:05;;;;;;;2.30;1.75;;;;;;;25.31;30.38;100259.28;10248372;28;20949;-51
2023/06/03 14:11:07;;;;;;;4.72;1.95;;;;;;;25.29;29.36;100255.88;10249927;28;20144;-51
2023/06/03 14:16:09;;;;;;;2.70;2.17;;;;;;;25.24;29.64;100253.00;10239352;28;20293;-51
2023/06/03 14:21:10;;;;;;;3.33;2.08;;;;;;;25.09;30.01;100244.31;10248400;28;20148;-50
2023/06/03 14:26:12;;;;;;;3.42;2.45;;;;;;;25.12;29.74;100238.44;10243656;28;20081;-51
2023/06/03 14:31:15;;;;;;;4.70;1.77;;;;;;;25.06;30.17;100232.78;10247142;28;20682;-56
2023/06/03 14:36:27;;;;;;;3.25;1.83;;;;;;;25.03;30.61;100233.22;10250942;28;20054;-51
2023/06/03 14:41:30;;;;;;;4.00;2.10;;;;;;;25.06;30.42;100234.69;10254688;28;20061;-51
2023/06/03 14:46:31;;;;;;;2.85;1.88;;;;;;;24.96;30.86;100221.53;10255452;28;20061;-51
2023/06/03 14:51:33;;;;;;;2.70;1.40;;;;;;;24.89;30.69;100209.84;10255548;28;20058;-52
2023/06/03 14:56:35;;;;;;;4.13;2.05;;;;;;;24.90;30.31;100214.25;10253743;28;20050;-51
2023/06/03 15:01:39;;;;;;;1.80;1.40;;;;;;;24.88;30.31;100217.19;10246237;28;20057;-51
2023/06/03 15:06:41;;;;;;;5.90;1.30;;;;;;;24.82;31.03;100211.81;10258763;28;20073;-51
2023/06/03 15:11:43;;;;;;;4.95;1.88;;;;;;;24.77;30.25;100204.28;10252156;28;20647;-51
2023/06/03 15:16:45;;;;;;;2.20;1.60;;;;;;;24.68;30.38;100200.13;10249429;28;20183;-51
2023/06/03 15:21:47;;;;;;;2.70;1.30;;;;;;;24.66;30.26;100197.63;10253642;28;20380;-51
2023/06/03 15:26:48;;;;;;;4.65;1.88;;;;;;;24.67;30.78;100199.31;10252203;28;20502;-51
2023/06/03 15:31:50;;;;;;;2.50;1.42;;;;;;;24.67;30.08;100193.06;10254568;28;20062;-51
2023/06/03 15:36:52;;;;;;;2.05;1.35;;;;;;;24.62;30.78;100199.16;10249555;28;20216;-52
2023/06/03 15:41:53;;;;;;;4.15;2.30;;;;;;;24.61;30.52;100202.09;10251909;28;20494;-51
2023/06/03 15:46:54;;;;;;;7.15;2.00;;;;;;;24.60;30.43;100203.94;10248929;28;20054;-51
2023/06/03 15:51:56;;;;;;;3.83;1.70;;;;;;;24.57;30.41;100190.75;10252445;28;20061;-52
2023/06/03 15:56:58;;;;;;;2.03;1.75;;;;;;;24.53;30.19;100182.19;10247791;28;20050;-51
2023/06/03 16:01:59;;;;;;;3.00;1.42;;;;;;;24.50;30.40;100190.81;10256458;28;20058;-51
2023/06/03 16:07:03;;;;;;;2.92;1.58;;;;;;;24.47;29.87;100176.78;10249380;28;20083;-51
2023/06/03 16:12:04;;;;;;;3.20;1.50;;;;;;;24.28;30.83;100184.81;10248443;28;20609;-51
2023/06/03 16:17:06;;;;;;;2.45;1.40;;;;;;;24.40;30.67;100173.28;10243233;28;20135;-51
2023/06/03 16:22:09;;;;;;;3.17;1.48;;;;;;;24.41;30.05;100175.78;10252653;28;20144;-52
2023/06/03 16:27:10;;;;;;;3.33;1.38;;;;;;;24.37;29.93;100177.25;10250630;28;20062;-51
2023/06/03 16:32:12;;;;;;;2.65;1.13;;;;;;;24.35;29.99;100173.94;10252193;28;20284;-51
2023/06/03 16:37:14;;;;;;;1.75;1.10;;;;;;;24.33;29.71;100165.97;10234919;28;20061;-51
2023/06/03 16:42:15;;;;;;;4.28;1.40;;;;;;;24.30;29.88;100171.84;10241798;28;20065;-51
2023/06/03 16:47:17;;;;;;;6.10;1.60;;;;;;;24.27;30.51;100169.53;10249888;28;20066;-50
2023/06/03 16:52:18;;;;;;;4.20;1.40;;;;;;;24.22;30.26;100173.97;10244224;28;21902;-51
2023/06/03 16:57:20;;;;;;;4.38;1.10;;;;;;;24.24;30.30;100178.13;10249042;28;20047;-51
2023/06/03 17:02:28;;;;;;;2.83;1.35;;;;;;;24.15;29.99;100177.53;10251020;28;20103;-54
2023/06/03 17:07:30;;;;;;;5.97;1.25;;;;;;;24.10;30.25;100182.78;10249382;28;20599;-50
2023/06/03 17:12:32;;;;;;;2.05;1.13;;;;;;;24.08;30.06;100186.78;10251606;28;20145;-51
2023/06/03 17:17:33;;;;;;;3.72;1.60;;;;;;;24.06;30.58;100186.16;10242097;28;21045;-50
2023/06/03 17:22:35;;;;;;;4.07;1.40;;;;;;;23.99;30.39;100178.88;10249717;28;20280;-50
2023/06/03 17:27:36;;;;;;;4.18;1.10;;;;;;;23.93;30.19;100187.03;10250348;28;20058;-49
2023/06/03 17:32:38;;;;;;;2.28;1.55;;;;;;;23.89;29.43;100177.66;10255626;28;20075;-51
2023/06/03 17:37:39;;;;;;;2.53;0.80;;;;;;;23.75;29.70;100182.22;10259313;28;20059;-60
2023/06/03 17:42:42;;;;;;;3.13;1.10;;;;;;;23.64;30.19;100168.25;10264674;28;20117;-60
2023/06/03 17:47:44;;;;;;;3.17;1.02;;;;;;;23.62;30.45;100188.53;10253424;28;20039;-61
2023/06/03 17:52:49;;;;;;;4.15;1.80;;;;;;;23.47;29.85;100177.88;10238976;28;20054;-60
2023/06/03 17:57:53;;;;;;;2.42;1.20;;;;;;;23.37;30.59;100185.63;10257381;28;20069;-60
2023/06/03 18:02:55;;;;;;;2.35;1.20;;;;;;;23.38;30.52;100184.59;10262048;28;20772;-61
2023/06/03 18:07:56;;;;;;;3.83;1.48;;;;;;;23.32;30.89;100188.13;10257904;28;20057;-60
2023/06/03 18:13:04;;;;;;;3.75;1.50;;;;;;;23.21;30.90;100195.84;10264241;28;20050;-60
2023/06/03 18:18:06;;;;;;;4.70;1.25;;;;;;;23.15;31.22;100209.41;10258599;28;20057;-61
2023/06/03 18:23:08;;;;;;;3.13;1.30;;;;;;;23.03;31.26;100211.88;10269014;28;20070;-61
2023/06/03 18:28:09;;;;;;;2.65;1.05;;;;;;;22.95;30.90;100219.19;10264045;28;20062;-61
2023/06/03 18:33:11;;;;;;;3.58;1.63;;;;;;;22.91;31.39;100222.53;10272511;28;22415;-61
2023/06/03 18:38:13;;;;;;;2.35;1.30;;;;;;;22.86;31.67;100225.00;10268743;28;20134;-61
2023/06/03 18:43:15;;;;;;;2.45;0.88;;;;;;;22.75;31.48;100231.88;10266038;28;20047;-61
2023/06/03 18:48:16;;;;;;;4.60;1.10;;;;;;;22.63;31.38;100228.06;10264269;28;20285;-61
2023/06/03 18:53:18;;;;;;;3.00;1.30;;;;;;;22.58;31.73;100239.53;10262901;28;20078;-61
2023/06/03 18:58:20;;;;;;;4.25;1.33;;;;;;;22.54;31.87;100233.66;10261991;28;20058;-61
2023/06/03 19:03:21;;;;;;;3.03;1.02;;;;;;;22.44;32.49;100235.91;10259845;28;20035;-61
2023/06/03 19:08:29;;;;;;;3.08;1.02;;;;;;;22.34;32.37;100243.56;10249705;28;20568;-62
2023/06/03 19:13:31;;;;;;;2.60;1.05;;;;;;;22.25;32.10;100248.31;10278100;28;20061;-60
2023/06/03 19:18:34;;;;;;;1.40;0.98;;;;;;;22.19;32.37;100251.84;10275805;28;20102;-59
2023/06/03 19:23:37;;;;;;;4.40;0.90;;;;;;;22.01;32.51;100238.81;10259576;28;20661;-61
2023/06/03 19:28:38;;;;;;;4.28;1.35;;;;;;;21.83;32.76;100275.34;10263554;28;20058;-60
2023/06/03 19:33:43;;;;;;;3.47;1.65;;;;;;;21.81;32.58;100272.03;10259819;28;20053;-60
2023/06/03 19:38:44;;;;;;;2.17;1.13;;;;;;;21.70;33.11;100269.84;10244226;28;20098;-61
2023/06/03 19:43:46;;;;;;;4.10;1.10;;;;;;;21.66;33.02;100288.34;10255164;28;20152;-62
2023/06/03 19:48:47;;;;;;;2.55;1.30;;;;;;;21.49;33.88;100290.44;10237675;28;20777;-53
2023/06/03 19:53:49;;;;;;;1.55;0.90;;;;;;;21.38;33.33;100293.69;10265314;28;20050;-53
2023/06/03 19:58:51;;;;;;;1.95;1.13;;;;;;;21.35;33.41;100296.78;10260982;28;20594;-52
2023/06/03 20:03:52;;;;;;;3.08;0.77;;;;;;;21.19;33.53;100312.22;10257695;28;20063;-53
2023/06/03 20:08:56;;;;;;;2.75;0.95;;;;;;;21.13;33.28;100315.69;10261806;28;20710;-52
2023/06/03 20:13:57;;;;;;;1.92;1.23;;;;;;;21.04;33.06;100314.16;10257359;28;20073;-54
2023/06/03 20:18:59;;;;;;;2.70;1.02;;;;;;;20.92;33.30;100315.69;10256592;28;20140;-53
2023/06/03 20:24:01;;;;;;;2.28;0.93;;;;;;;20.89;34.02;100329.59;10259085;28;20051;-53
2023/06/03 20:29:03;;;;;;;2.22;1.05;;;;;;;20.80;33.21;100323.44;10257973;28;20189;-53
2023/06/03 20:34:04;;;;;;;3.15;0.85;;;;;;;20.72;33.69;100305.44;10258494;28;20065;-52
2023/06/03 20:39:05;;;;;;;1.70;0.75;;;;;;;20.75;33.09;100328.59;10259473;28;20401;-52
2023/06/03 20:44:07;;;;;;;2.05;0.98;;;;;;;20.75;33.24;100325.88;10260533;28;20061;-52
2023/06/03 20:49:09;;;;;;;5.07;1.33;;;;;;;20.64;33.19;100321.72;10260249;28;20450;-53
2023/06/03 20:54:10;;;;;;;2.70;1.33;;;;;;;20.57;33.34;100323.53;10261537;28;20135;-53
2023/06/03 20:59:12;;;;;;;2.65;1.13;;;;;;;20.57;32.89;100331.66;10257516;28;20062;-61
2023/06/03 21:04:13;;;;;;;1.75;0.90;;;;;;;20.32;33.45;100326.50;10260242;28;20109;-61
2023/06/03 21:09:15;;;;;;;2.15;1.60;;;;;;;20.22;33.58;100342.16;10255992;28;20066;-61
2023/06/03 21:14:17;;;;;;;3.33;1.40;;;;;;;20.17;33.44;100339.16;10254248;28;20070;-61
2023/06/03 21:19:19;;;;;;;5.03;1.05;;;;;;;20.04;33.71;100340.66;10248487;28;20133;-61
2023/06/03 21:24:20;;;;;;;3.10;0.98;;;;;;;19.92;33.51;100347.50;10263031;28;20140;-61
2023/06/03 21:29:23;;;;;;;3.17;0.98;;;;;;;19.86;33.53;100345.53;10257693;28;20090;-61
2023/06/03 21:34:24;;;;;;;1.98;1.25;;;;;;;19.82;33.48;100352.34;10242726;28;20050;-61
2023/06/03 21:39:25;;;;;;;5.35;1.75;;;;;;;19.69;33.65;100348.31;10254750;28;20054;-62
2023/06/03 21:44:27;;;;;;;2.20;1.05;;;;;;;19.67;33.79;100350.38;10236934;28;20065;-61
2023/06/03 21:49:28;;;;;;;2.88;1.55;;;;;;;19.63;33.96;100362.56;10254385;28;20058;-61
2023/06/03 21:54:32;;;;;;;;;;;;;;;19.52;34.20;100352.19;10250317;28;20562;-61
2023/06/03 21:59:34;;;;;;;2.53;1.23;;;;;;;19.48;34.17;100367.06;10231569;28;19941;-61
2023/06/03 22:04:36;;;;;;;1.55;1.20;;;;;;;19.39;34.29;100364.41;10259468;28;20057;-61
2023/06/03 22:09:37;;;;;;;2.70;1.10;;;;;;;19.28;34.38;100369.38;10255367;28;20106;-62
2023/06/03 22:14:39;;;;;;;5.13;1.38;;;;;;;19.21;34.57;100371.94;10255085;28;20094;-66
2023/06/03 22:19:41;;;;;;;2.90;1.08;;;;;;;19.19;34.68;100373.97;10254490;28;20517;-61
2023/06/03 22:24:42;;;;;;;3.05;1.17;;;;;;;19.19;34.68;100373.97;10246158;28;22597;-61
2023/06/03 22:29:44;;;;;;;2.58;1.65;;;;;;;19.13;34.67;100374.69;10243736;28;20058;-61
2023/06/03 22:34:45;;;;;;;2.97;0.95;;;;;;;19.05;34.69;100368.31;10247625;28;20138;-61
2023/06/03 22:39:48;;;;;;;2.78;1.33;;;;;;;18.97;34.68;100371.03;10254234;28;20546;-61
2023/06/03 22:44:50;;;;;;;2.50;1.35;;;;;;;18.80;34.77;100381.03;10250428;28;20155;-61
2023/06/03 22:49:54;;;;;;;3.72;1.23;;;;;;;18.82;34.79;100378.16;10253969;28;20051;-61
2023/06/03 22:54:56;;;;;;;2.63;1.20;;;;;;;18.80;34.83;100390.97;10238679;28;20182;-61
2023/06/03 22:59:58;;;;;;;5.20;1.20;;;;;;;18.76;34.91;100384.25;10247587;28;20216;-61
2023/06/03 23:04:59;;;;;;;1.83;0.95;;;;;;;18.70;35.11;100383.09;10259685;28;20062;-61
2023/06/03 23:10:01;;;;;;;2.00;1.13;;;;;;;18.54;35.44;100375.91;10262295;28;20207;-61
2023/06/03 23:15:03;;;;;;;2.92;1.10;;;;;;;18.57;35.38;100380.94;10257956;28;20094;-61
2023/06/03 23:20:16;;;;;;;4.03;1.27;;;;;;;18.45;35.35;100383.16;10263721;28;20051;-60